createdAt,value
2022-10-06T00:00:53.578Z,100
2022-10-06T00:01:53.611Z,100
2022-10-06T00:02:53.673Z,100
2022-10-06T00:03:53.600Z,100
2022-10-06T00:04:53.606Z,100
2022-10-06T00:05:58.539Z,100
2022-10-06T00:06:55.172Z,100
2022-10-06T00:07:55.208Z,100
2022-10-06T00:08:55.187Z,100
2022-10-06T00:09:55.185Z,100
2022-10-06T00:10:55.916Z,100
2022-10-06T00:11:55.236Z,100
2022-10-06T00:12:55.341Z,100
2022-10-06T00:13:55.510Z,100
2022-10-06T00:14:55.257Z,100
2022-10-06T00:15:55.784Z,100
2022-10-06T00:16:55.497Z,100
2022-10-06T00:17:56.080Z,100
2022-10-06T00:18:55.357Z,100
2022-10-06T00:19:55.536Z,100
2022-10-06T00:20:59.762Z,100
2022-10-06T00:21:56.408Z,100
2022-10-06T00:22:56.440Z,100
2022-10-06T00:23:56.449Z,100
2022-10-06T00:24:56.405Z,100
2022-10-06T00:25:56.901Z,100
2022-10-06T00:26:56.474Z,100
2022-10-06T00:27:56.508Z,100
2022-10-06T00:28:56.554Z,100
2022-10-06T00:29:56.507Z,100
2022-10-06T00:30:56.628Z,100
2022-10-06T00:31:56.539Z,100
2022-10-06T00:32:57.917Z,100
2022-10-06T00:33:56.568Z,100
2022-10-06T00:34:56.809Z,100
2022-10-06T00:35:57.462Z,100
2022-10-06T00:36:56.861Z,100
2022-10-06T00:37:56.643Z,100
2022-10-06T00:38:56.898Z,100
2022-10-06T00:39:56.633Z,100
2022-10-06T00:40:56.654Z,100
2022-10-06T00:41:56.649Z,100
2022-10-06T00:43:01.283Z,100
2022-10-06T00:43:58.426Z,100
2022-10-06T00:45:00.098Z,100
2022-10-06T00:45:58.064Z,100
2022-10-06T00:46:58.007Z,100
2022-10-06T00:47:59.448Z,100
2022-10-06T00:49:59.679Z,100
2022-10-06T00:50:59.167Z,100
2022-10-06T00:52:02.565Z,100
2022-10-06T00:52:59.551Z,100
2022-10-06T00:54:00.394Z,100
2022-10-06T00:54:59.424Z,100
2022-10-06T00:55:59.273Z,100
2022-10-06T00:56:59.401Z,100
2022-10-06T00:57:59.918Z,100
2022-10-06T00:58:59.250Z,100
2022-10-06T00:59:59.592Z,100
2022-10-06T01:00:59.522Z,100
2022-10-06T01:03:09.601Z,100
2022-10-06T01:04:08.212Z,100
2022-10-06T01:05:08.845Z,100
2022-10-06T01:06:06.945Z,100
2022-10-06T01:07:06.840Z,100
2022-10-06T01:08:06.316Z,100
2022-10-06T01:09:06.338Z,100
2022-10-06T01:10:06.978Z,100
2022-10-06T01:11:10.425Z,100
2022-10-06T01:12:08.100Z,100
2022-10-06T01:13:07.870Z,100
2022-10-06T01:14:07.104Z,100
2022-10-06T01:15:07.667Z,100
2022-10-06T01:16:18.259Z,100
2022-10-06T01:17:14.169Z,100
2022-10-06T01:18:12.953Z,100
2022-10-06T01:19:16.945Z,100
2022-10-06T01:20:15.352Z,100
2022-10-06T01:22:17.810Z,100
2022-10-06T01:23:16.453Z,100
2022-10-06T01:24:17.426Z,100
2022-10-06T01:25:17.306Z,100
2022-10-06T01:26:17.716Z,100
2022-10-06T01:27:16.349Z,100
2022-10-06T01:28:16.227Z,100
2022-10-06T01:29:16.509Z,100
2022-10-06T01:30:18.783Z,100
2022-10-06T01:31:16.400Z,100
2022-10-06T01:32:16.249Z,100
2022-10-06T01:33:16.442Z,100
2022-10-06T01:34:16.250Z,100
2022-10-06T01:35:16.453Z,100
2022-10-06T01:36:16.236Z,100
2022-10-06T01:37:16.626Z,100
2022-10-06T01:38:16.890Z,100
2022-10-06T01:39:16.302Z,100
2022-10-06T01:40:16.705Z,100
2022-10-06T01:41:16.308Z,100
2022-10-06T01:42:16.575Z,100
2022-10-06T01:43:16.335Z,100
2022-10-06T01:44:16.354Z,100
2022-10-06T01:45:16.716Z,100
2022-10-06T01:46:16.435Z,100
2022-10-06T01:47:16.391Z,100
2022-10-06T01:48:16.425Z,100
2022-10-06T01:49:16.410Z,100
2022-10-06T01:50:16.664Z,100
2022-10-06T01:51:16.438Z,100
2022-10-06T01:52:16.447Z,100
2022-10-06T01:53:16.924Z,100
2022-10-06T01:54:16.491Z,100
2022-10-06T01:55:16.513Z,100
2022-10-06T01:56:16.519Z,100
2022-10-06T01:57:16.514Z,100
2022-10-06T01:58:16.585Z,100
2022-10-06T01:59:16.613Z,100
2022-10-06T02:00:17.553Z,100
2022-10-06T02:01:16.770Z,100
2022-10-06T02:02:16.595Z,100
2022-10-06T02:03:16.688Z,100
2022-10-06T02:04:16.871Z,100
2022-10-06T02:05:16.800Z,100
2022-10-06T02:06:16.674Z,100
2022-10-06T02:07:16.630Z,100
2022-10-06T02:08:16.647Z,100
2022-10-06T02:09:16.734Z,100
2022-10-06T02:10:16.701Z,100
2022-10-06T02:11:16.676Z,100
2022-10-06T02:12:16.713Z,100
2022-10-06T02:13:16.687Z,100
2022-10-06T02:14:16.995Z,100
2022-10-06T02:15:16.940Z,100
2022-10-06T02:16:16.830Z,100
2022-10-06T02:17:16.765Z,100
2022-10-06T02:18:16.791Z,100
2022-10-06T02:19:16.857Z,100
2022-10-06T02:20:16.831Z,100
2022-10-06T02:21:18.613Z,100
2022-10-06T02:22:17.081Z,100
2022-10-06T02:23:17.025Z,100
2022-10-06T02:24:16.904Z,100
2022-10-06T02:25:16.893Z,100
2022-10-06T02:26:17.633Z,100
2022-10-06T02:27:16.884Z,100
2022-10-06T02:28:17.012Z,100
2022-10-06T02:29:16.920Z,100
2022-10-06T02:30:17.196Z,100
2022-10-06T02:31:17.221Z,100
2022-10-06T02:32:16.949Z,100
2022-10-06T02:33:16.955Z,100
2022-10-06T02:34:17.008Z,100
2022-10-06T02:35:16.998Z,100
2022-10-06T02:36:17.379Z,100
2022-10-06T02:37:17.117Z,100
2022-10-06T02:38:17.020Z,100
2022-10-06T02:39:17.099Z,100
2022-10-06T02:40:17.506Z,100
2022-10-06T02:41:17.085Z,100
2022-10-06T02:42:17.068Z,100
2022-10-06T02:43:17.352Z,100
2022-10-06T02:44:17.206Z,100
2022-10-06T02:45:17.134Z,100
2022-10-06T02:46:17.192Z,100
2022-10-06T02:47:17.159Z,100
2022-10-06T02:48:17.150Z,100
2022-10-06T02:49:17.167Z,100
2022-10-06T02:50:17.359Z,100
2022-10-06T02:51:18.095Z,100
2022-10-06T02:52:17.186Z,100
2022-10-06T02:53:17.225Z,100
2022-10-06T02:54:17.399Z,100
2022-10-06T02:55:17.243Z,100
2022-10-06T02:56:21.454Z,100
2022-10-06T02:57:17.639Z,100
2022-10-06T02:58:17.672Z,100
2022-10-06T02:59:17.655Z,100
2022-10-06T03:00:17.890Z,100
2022-10-06T03:01:19.158Z,100
2022-10-06T03:02:17.924Z,100
2022-10-06T03:03:17.748Z,100
2022-10-06T03:04:17.740Z,100
2022-10-06T03:05:17.715Z,100
2022-10-06T03:06:19.527Z,100
2022-10-06T03:07:17.797Z,100
2022-10-06T03:08:17.779Z,100
2022-10-06T03:09:17.794Z,100
2022-10-06T03:10:17.790Z,100
2022-10-06T03:11:18.375Z,100
2022-10-06T03:12:17.892Z,100
2022-10-06T03:13:17.822Z,100
2022-10-06T03:14:21.683Z,100
2022-10-06T03:15:18.359Z,100
2022-10-06T03:16:22.847Z,100
2022-10-06T03:17:19.224Z,100
2022-10-06T03:18:19.231Z,100
2022-10-06T03:19:19.214Z,100
2022-10-06T03:20:19.220Z,100
2022-10-06T03:21:20.042Z,100
2022-10-06T03:22:19.277Z,100
2022-10-06T03:23:19.244Z,100
2022-10-06T03:24:19.272Z,100
2022-10-06T03:25:19.295Z,100
2022-10-06T03:26:20.600Z,100
2022-10-06T03:27:19.410Z,100
2022-10-06T03:28:19.400Z,100
2022-10-06T03:29:19.345Z,100
2022-10-06T03:30:19.361Z,100
2022-10-06T03:31:19.486Z,100
2022-10-06T03:32:19.428Z,100
2022-10-06T03:33:19.388Z,100
2022-10-06T03:34:19.393Z,100
2022-10-06T03:35:19.450Z,100
2022-10-06T03:36:20.664Z,100
2022-10-06T03:37:20.340Z,100
2022-10-06T03:38:19.458Z,100
2022-10-06T03:39:19.493Z,100
2022-10-06T03:40:19.506Z,100
2022-10-06T03:41:20.876Z,100
2022-10-06T03:42:19.541Z,100
2022-10-06T03:43:19.579Z,100
2022-10-06T03:44:19.540Z,100
2022-10-06T03:45:19.974Z,100
2022-10-06T03:46:20.685Z,100
2022-10-06T03:47:19.592Z,100
2022-10-06T03:48:19.790Z,100
2022-10-06T03:49:19.622Z,100
2022-10-06T03:50:19.621Z,100
2022-10-06T03:51:21.088Z,100
2022-10-06T03:52:25.043Z,100
2022-10-06T03:53:22.206Z,100
2022-10-06T03:54:22.156Z,100
2022-10-06T03:55:22.184Z,100
2022-10-06T03:56:23.447Z,100
2022-10-06T03:57:22.213Z,100
2022-10-06T03:58:22.229Z,100
2022-10-06T03:59:22.313Z,100
2022-10-06T04:00:22.265Z,100
2022-10-06T04:01:26.960Z,100
2022-10-06T04:02:23.312Z,100
2022-10-06T04:03:23.315Z,100
2022-10-06T04:04:23.344Z,100
2022-10-06T04:05:23.321Z,100
2022-10-06T04:06:24.139Z,100
2022-10-06T04:07:23.378Z,100
2022-10-06T04:08:24.309Z,100
2022-10-06T04:09:23.434Z,100
2022-10-06T04:10:23.396Z,100
2022-10-06T04:11:24.983Z,100
2022-10-06T04:12:23.431Z,100
2022-10-06T04:13:23.468Z,100
2022-10-06T04:14:23.497Z,100
2022-10-06T04:15:23.464Z,100
2022-10-06T04:16:24.655Z,100
2022-10-06T04:17:23.489Z,100
2022-10-06T04:18:23.801Z,100
2022-10-06T04:19:23.539Z,100
2022-10-06T04:20:23.549Z,100
2022-10-06T04:21:24.647Z,100
2022-10-06T04:22:23.773Z,100
2022-10-06T04:23:23.635Z,100
2022-10-06T04:24:23.659Z,100
2022-10-06T04:25:23.634Z,100
2022-10-06T04:26:25.210Z,100
2022-10-06T04:27:23.879Z,100
2022-10-06T04:28:23.762Z,100
2022-10-06T04:29:23.739Z,100
2022-10-06T04:30:26.507Z,100
2022-10-06T04:31:27.895Z,100
2022-10-06T04:32:24.278Z,100
2022-10-06T04:33:24.422Z,100
2022-10-06T04:34:24.281Z,100
2022-10-06T04:35:24.251Z,100
2022-10-06T04:36:25.866Z,100
2022-10-06T04:37:24.417Z,100
2022-10-06T04:38:24.294Z,100
2022-10-06T04:39:24.465Z,100
2022-10-06T04:40:24.352Z,100
2022-10-06T04:41:28.539Z,100
2022-10-06T04:42:24.738Z,100
2022-10-06T04:43:24.738Z,100
2022-10-06T04:44:24.920Z,100
2022-10-06T04:45:24.768Z,100
2022-10-06T04:47:26.739Z,100
2022-10-06T04:48:28.045Z,100
2022-10-06T04:49:26.962Z,100
2022-10-06T04:50:27.077Z,100
2022-10-06T04:51:27.121Z,100
2022-10-06T04:52:26.751Z,100
2022-10-06T04:53:27.828Z,100
2022-10-06T04:54:31.367Z,100
2022-10-06T04:55:29.724Z,100
2022-10-06T04:56:30.312Z,100
2022-10-06T04:57:29.723Z,100
2022-10-06T04:58:31.751Z,100
2022-10-06T04:59:29.776Z,100
2022-10-06T05:00:29.844Z,100
2022-10-06T05:01:31.457Z,100
2022-10-06T05:02:29.878Z,100
2022-10-06T05:03:30.490Z,100
2022-10-06T05:04:30.377Z,100
2022-10-06T05:05:30.757Z,100
2022-10-06T05:06:31.516Z,100
2022-10-06T05:07:29.861Z,100
2022-10-06T05:08:30.460Z,100
2022-10-06T05:09:29.908Z,100
2022-10-06T05:10:29.921Z,100
2022-10-06T05:11:30.333Z,100
2022-10-06T05:12:29.951Z,100
2022-10-06T05:13:30.580Z,100
2022-10-06T05:14:29.989Z,100
2022-10-06T05:15:30.000Z,100
2022-10-06T05:16:30.724Z,100
2022-10-06T05:17:30.049Z,100
2022-10-06T05:18:31.480Z,100
2022-10-06T05:19:30.070Z,100
2022-10-06T05:20:30.091Z,100
2022-10-06T05:21:31.176Z,100
2022-10-06T05:22:30.116Z,100
2022-10-06T05:23:31.188Z,100
2022-10-06T05:24:30.151Z,100
2022-10-06T05:25:30.170Z,100
2022-10-06T05:26:31.126Z,100
2022-10-06T05:27:30.199Z,100
2022-10-06T05:28:31.060Z,100
2022-10-06T05:29:30.221Z,100
2022-10-06T05:30:30.255Z,100
2022-10-06T05:31:31.087Z,100
2022-10-06T05:32:35.140Z,100
2022-10-06T05:33:33.561Z,100
2022-10-06T05:34:32.200Z,100
2022-10-06T05:35:32.248Z,100
2022-10-06T05:36:32.838Z,100
2022-10-06T05:37:32.510Z,100
2022-10-06T05:38:33.051Z,100
2022-10-06T05:39:32.315Z,100
2022-10-06T05:40:32.562Z,100
2022-10-06T05:41:32.974Z,100
2022-10-06T05:42:32.356Z,100
2022-10-06T05:43:33.318Z,100
2022-10-06T05:44:32.428Z,100
2022-10-06T05:45:32.478Z,100
2022-10-06T05:46:33.106Z,100
2022-10-06T05:47:32.458Z,100
2022-10-06T05:48:32.808Z,100
2022-10-06T05:49:32.583Z,100
2022-10-06T05:50:32.482Z,100
2022-10-06T05:51:33.248Z,100
2022-10-06T05:52:32.530Z,100
2022-10-06T05:53:33.501Z,100
2022-10-06T05:54:32.569Z,100
2022-10-06T05:55:32.576Z,100
2022-10-06T05:56:37.066Z,100
2022-10-06T05:57:33.240Z,100
2022-10-06T05:58:34.644Z,100
2022-10-06T05:59:33.344Z,100
2022-10-06T06:00:33.294Z,100
2022-10-06T06:01:34.484Z,100
2022-10-06T06:02:33.401Z,100
2022-10-06T06:03:33.357Z,100
2022-10-06T06:04:33.397Z,100
2022-10-06T06:05:33.411Z,100
2022-10-06T06:06:34.829Z,100
2022-10-06T06:07:33.424Z,100
2022-10-06T06:08:33.595Z,100
2022-10-06T06:09:33.496Z,100
2022-10-06T06:10:33.486Z,100
2022-10-06T06:11:34.087Z,100
2022-10-06T06:12:33.530Z,100
2022-10-06T06:13:34.109Z,100
2022-10-06T06:14:33.516Z,100
2022-10-06T06:15:33.568Z,100
2022-10-06T06:16:34.277Z,100
2022-10-06T06:17:33.586Z,100
2022-10-06T06:18:35.686Z,100
2022-10-06T06:19:33.609Z,100
2022-10-06T06:20:33.641Z,100
2022-10-06T06:21:33.698Z,100
2022-10-06T06:22:33.678Z,100
2022-10-06T06:23:37.758Z,100
2022-10-06T06:24:33.953Z,100
2022-10-06T06:25:34.013Z,100
2022-10-06T06:26:35.755Z,100
2022-10-06T06:27:34.185Z,100
2022-10-06T06:28:34.857Z,100
2022-10-06T06:29:34.036Z,100
2022-10-06T06:30:34.294Z,100
2022-10-06T06:31:35.183Z,100
2022-10-06T06:32:34.092Z,100
2022-10-06T06:33:34.589Z,100
2022-10-06T06:34:34.104Z,100
2022-10-06T06:35:36.364Z,100
2022-10-06T06:36:35.713Z,100
2022-10-06T06:37:34.408Z,100
2022-10-06T06:38:34.155Z,100
2022-10-06T06:39:34.607Z,100
2022-10-06T06:40:34.198Z,100
2022-10-06T06:41:35.983Z,100
2022-10-06T06:42:34.232Z,100
2022-10-06T06:43:34.311Z,100
2022-10-06T06:44:34.308Z,100
2022-10-06T06:45:34.280Z,100
2022-10-06T06:47:34.360Z,100
2022-10-06T06:48:34.345Z,100
2022-10-06T06:49:34.339Z,100
2022-10-06T06:50:34.384Z,100
2022-10-06T06:51:35.848Z,100
2022-10-06T06:52:34.653Z,100
2022-10-06T06:53:34.685Z,100
2022-10-06T06:54:34.457Z,100
2022-10-06T06:55:34.439Z,100
2022-10-06T06:56:35.300Z,100
2022-10-06T06:57:34.497Z,100
2022-10-06T06:58:37.848Z,100
2022-10-06T06:59:34.507Z,100
2022-10-06T07:00:36.325Z,100
2022-10-06T07:01:34.600Z,100
2022-10-06T07:02:34.612Z,100
2022-10-06T07:03:56.175Z,100
2022-10-06T07:04:35.884Z,100
2022-10-06T07:05:35.896Z,100
2022-10-06T07:06:37.609Z,100
2022-10-06T07:07:35.995Z,100
2022-10-06T07:08:36.938Z,100
2022-10-06T07:09:35.956Z,100
2022-10-06T07:10:36.144Z,100
2022-10-06T07:11:37.381Z,100
2022-10-06T07:12:36.049Z,100
2022-10-06T07:13:36.007Z,100
2022-10-06T07:14:36.012Z,100
2022-10-06T07:15:36.086Z,100
2022-10-06T07:16:36.069Z,100
2022-10-06T07:17:36.123Z,100
2022-10-06T07:18:36.330Z,100
2022-10-06T07:19:36.111Z,100
2022-10-06T07:20:36.162Z,100
2022-10-06T07:21:36.142Z,100
2022-10-06T07:22:36.184Z,100
2022-10-06T07:23:36.481Z,100
2022-10-06T07:24:36.329Z,100
2022-10-06T07:25:36.198Z,100
2022-10-06T07:26:36.206Z,100
2022-10-06T07:27:37.696Z,100
2022-10-06T07:28:36.307Z,100
2022-10-06T07:29:36.738Z,100
2022-10-06T07:30:40.732Z,100
2022-10-06T07:31:37.359Z,100
2022-10-06T07:32:37.364Z,100
2022-10-06T07:33:37.347Z,100
2022-10-06T07:34:37.666Z,100
2022-10-06T07:35:38.668Z,100
2022-10-06T07:36:37.421Z,100
2022-10-06T07:37:38.965Z,100
2022-10-06T07:38:37.730Z,100
2022-10-06T07:39:37.458Z,100
2022-10-06T07:40:40.206Z,100
2022-10-06T07:41:37.614Z,100
2022-10-06T07:42:39.113Z,100
2022-10-06T07:43:37.636Z,100
2022-10-06T07:44:37.661Z,100
2022-10-06T07:45:37.725Z,100
2022-10-06T07:46:37.665Z,100
2022-10-06T07:47:37.728Z,100
2022-10-06T07:48:37.742Z,100
2022-10-06T07:49:37.770Z,100
2022-10-06T07:50:38.621Z,100
2022-10-06T07:51:37.840Z,100
2022-10-06T07:52:37.793Z,100
2022-10-06T07:53:37.816Z,100
2022-10-06T07:54:37.843Z,100
2022-10-06T07:55:38.700Z,100
2022-10-06T07:56:37.835Z,100
2022-10-06T07:57:37.883Z,100
2022-10-06T07:58:38.599Z,100
2022-10-06T07:59:37.914Z,100
2022-10-06T08:00:37.905Z,100
2022-10-06T08:01:38.646Z,100
2022-10-06T08:02:38.217Z,100
2022-10-06T08:03:38.660Z,100
2022-10-06T08:04:38.208Z,100
2022-10-06T08:05:38.389Z,100
2022-10-06T08:06:38.333Z,100
2022-10-06T08:07:38.008Z,100
2022-10-06T08:08:38.105Z,100
2022-10-06T08:09:38.104Z,100
2022-10-06T08:10:38.069Z,100
2022-10-06T08:11:38.087Z,100
2022-10-06T08:12:38.227Z,100
2022-10-06T08:13:39.327Z,100
2022-10-06T08:14:38.178Z,100
2022-10-06T08:15:38.174Z,100
2022-10-06T08:16:38.241Z,100
2022-10-06T08:17:38.323Z,100
2022-10-06T08:18:46.413Z,100
2022-10-06T08:19:38.441Z,100
2022-10-06T08:20:38.302Z,100
2022-10-06T08:21:38.312Z,100
2022-10-06T08:22:38.686Z,100
2022-10-06T08:23:38.317Z,100
2022-10-06T08:25:04.140Z,100
2022-10-06T08:25:40.050Z,100
2022-10-06T08:26:39.481Z,100
2022-10-06T08:27:39.504Z,100
2022-10-06T08:28:40.463Z,100
2022-10-06T08:29:39.749Z,100
2022-10-06T08:30:39.991Z,100
2022-10-06T08:31:39.679Z,100
2022-10-06T08:32:39.611Z,100
2022-10-06T08:33:39.910Z,100
2022-10-06T08:34:39.730Z,100
2022-10-06T08:35:39.900Z,100
2022-10-06T08:36:44.935Z,100
2022-10-06T08:37:43.857Z,100
2022-10-06T08:38:43.890Z,100
2022-10-06T08:39:43.520Z,100
2022-10-06T08:40:44.709Z,100
2022-10-06T08:41:49.077Z,100
2022-10-06T08:42:49.716Z,100
2022-10-06T08:43:48.878Z,100
2022-10-06T08:44:48.019Z,100
2022-10-06T08:45:47.121Z,100
2022-10-06T08:48:47.960Z,100
2022-10-06T08:49:48.112Z,100
2022-10-06T08:51:52.516Z,100
2022-10-06T08:56:06.245Z,100
2022-10-06T08:57:03.738Z,100
2022-10-06T08:59:04.619Z,100
2022-10-06T09:05:14.939Z,100
2022-10-06T09:06:21.677Z,100
2022-10-06T09:16:40.003Z,100
2022-10-06T09:17:40.885Z,100
2022-10-06T09:19:06.674Z,100
2022-10-06T09:19:43.317Z,100
2022-10-06T09:20:49.559Z,100
2022-10-06T09:21:52.747Z,100
2022-10-06T09:22:50.276Z,100
2022-10-06T09:23:58.250Z,100
2022-10-06T09:24:53.679Z,100
2022-10-06T09:25:49.887Z,100
2022-10-06T09:26:50.916Z,100
2022-10-06T09:27:53.054Z,100
2022-10-06T09:28:50.806Z,100
2022-10-06T09:29:50.805Z,100
2022-10-06T09:30:54.560Z,100
2022-10-06T09:31:51.700Z,100
2022-10-06T09:32:54.625Z,100
2022-10-06T09:33:53.099Z,100
2022-10-06T09:34:53.289Z,100
2022-10-06T09:38:04.408Z,100
2022-10-06T09:38:59.872Z,100
2022-10-06T09:39:59.491Z,100
2022-10-06T09:40:59.199Z,100
2022-10-06T09:42:03.523Z,100
2022-10-06T09:43:00.735Z,100
2022-10-06T09:44:04.829Z,100
2022-10-06T09:48:20.977Z,100
2022-10-06T09:49:20.712Z,100
2022-10-06T09:51:21.702Z,100
2022-10-06T09:52:22.037Z,100
2022-10-06T09:53:21.758Z,100
2022-10-06T09:54:21.701Z,100
2022-10-06T09:55:22.893Z,100
2022-10-06T09:56:21.802Z,100
2022-10-06T09:57:25.137Z,100
2022-10-06T09:58:23.505Z,100
2022-10-06T09:59:23.780Z,100
2022-10-06T10:00:34.738Z,100
2022-10-06T10:01:28.145Z,100
2022-10-06T10:02:33.648Z,100
2022-10-06T10:04:37.423Z,100
2022-10-06T10:05:36.101Z,100
2022-10-06T10:06:34.677Z,100
2022-10-06T10:07:35.211Z,100
2022-10-06T10:09:34.248Z,100
2022-10-06T10:10:34.402Z,100
2022-10-06T10:11:35.731Z,100
2022-10-06T10:12:34.130Z,100
2022-10-06T10:13:43.578Z,100
2022-10-06T10:14:38.363Z,100
2022-10-06T10:15:40.651Z,100
2022-10-06T10:16:37.572Z,100
2022-10-06T10:17:46.637Z,100
2022-10-06T10:18:44.485Z,100
2022-10-06T10:19:42.746Z,100
2022-10-06T10:20:50.488Z,100
2022-10-06T10:21:44.518Z,100
2022-10-06T10:22:42.181Z,100
2022-10-06T10:23:43.384Z,100
2022-10-06T10:26:56.871Z,100
2022-10-06T10:35:15.501Z,100
2022-10-06T10:36:14.415Z,100
2022-10-06T10:37:15.630Z,100
2022-10-06T10:38:18.872Z,100
2022-10-06T10:39:19.148Z,100
2022-10-06T10:41:22.553Z,100
2022-10-06T10:44:27.776Z,100
2022-10-06T10:46:34.217Z,100
2022-10-06T10:47:38.460Z,100
2022-10-06T10:49:39.676Z,100
2022-10-06T10:52:46.793Z,100
2022-10-06T10:55:49.961Z,100
2022-10-06T10:56:49.922Z,100
2022-10-06T10:57:50.010Z,100
2022-10-06T10:58:52.238Z,100
2022-10-06T11:00:54.755Z,100
2022-10-06T11:02:58.391Z,100
2022-10-06T11:03:55.738Z,100
2022-10-06T11:04:57.972Z,100
2022-10-06T11:12:24.684Z,100
2022-10-06T11:21:42.568Z,100
2022-10-06T11:29:02.013Z,100
2022-10-06T11:31:03.223Z,100
2022-10-06T11:32:06.205Z,100
2022-10-06T11:34:04.684Z,100
2022-10-06T11:35:15.925Z,100
2022-10-06T11:36:11.262Z,100
2022-10-06T11:37:15.987Z,100
2022-10-06T11:41:30.936Z,100
2022-10-06T11:42:34.135Z,100
2022-10-06T11:43:35.831Z,100
2022-10-06T11:44:30.825Z,100
2022-10-06T11:45:33.838Z,100
2022-10-06T11:46:45.208Z,100
2022-10-06T11:47:42.816Z,100
2022-10-06T11:48:34.677Z,100
2022-10-06T11:49:47.051Z,100
2022-10-06T11:50:39.809Z,100
2022-10-06T11:51:38.708Z,100
2022-10-06T11:52:45.739Z,100
2022-10-06T11:53:43.381Z,100
2022-10-06T11:54:47.949Z,100
2022-10-06T11:55:44.609Z,100
2022-10-06T11:56:44.611Z,100
2022-10-06T11:59:47.034Z,100
2022-10-06T12:00:48.404Z,100
2022-10-06T12:01:51.218Z,100
2022-10-06T12:02:47.694Z,100
2022-10-06T12:03:48.161Z,100
2022-10-06T12:05:56.270Z,100
2022-10-06T12:06:54.833Z,100
2022-10-06T12:08:58.226Z,100
2022-10-06T12:11:02.974Z,100
2022-10-06T12:17:20.874Z,100
2022-10-06T12:32:54.081Z,100
2022-10-06T12:33:50.936Z,100
2022-10-06T12:34:58.881Z,100
2022-10-06T12:36:00.438Z,100
2022-10-06T12:37:56.409Z,100
2022-10-06T12:41:00.742Z,100
2022-10-06T12:42:01.437Z,100
2022-10-06T12:45:13.439Z,100
2022-10-06T12:46:16.260Z,100
2022-10-06T12:47:19.907Z,100
2022-10-06T12:48:21.019Z,100
2022-10-06T12:50:22.979Z,100
2022-10-06T12:51:26.598Z,100
2022-10-06T12:53:30.118Z,100
2022-10-06T12:54:32.260Z,99.81
2022-10-06T12:55:41.257Z,99.75
2022-10-06T12:56:35.113Z,100
2022-10-06T12:57:44.500Z,99.68
2022-10-06T12:58:36.326Z,99.78
2022-10-06T12:59:36.167Z,99.35
2022-10-06T13:00:38.015Z,99.53
2022-10-06T13:01:36.527Z,99.13
2022-10-06T13:02:37.257Z,98.74
2022-10-06T13:03:36.698Z,98.25
2022-10-06T13:04:40.628Z,98.42
2022-10-06T13:05:37.324Z,98.11
2022-10-06T13:06:37.633Z,97.62
2022-10-06T13:08:41.860Z,96.08
2022-10-06T13:09:42.666Z,96.71
2022-10-06T13:10:41.899Z,96.94
2022-10-06T13:11:41.938Z,96.52
2022-10-06T13:12:42.813Z,96.33
2022-10-06T13:13:52.099Z,97.22
2022-10-06T13:14:43.769Z,96.6
2022-10-06T13:15:43.777Z,96.65
2022-10-06T13:16:47.220Z,95.92
2022-10-06T13:18:45.909Z,96.32
2022-10-06T13:19:45.161Z,95.49
2022-10-06T13:21:49.344Z,94.9
2022-10-06T13:22:56.471Z,94.13
2022-10-06T13:23:52.648Z,93.61
2022-10-06T13:24:59.451Z,94.05
2022-10-06T13:26:56.743Z,93.11
2022-10-06T13:27:56.726Z,93.48
2022-10-06T13:28:57.382Z,94.55
2022-10-06T13:31:58.978Z,93.67
2022-10-06T13:32:59.325Z,93.67
2022-10-06T13:34:03.930Z,94.62
2022-10-06T13:35:01.941Z,93.82
2022-10-06T13:36:01.728Z,94.5
2022-10-06T13:37:00.978Z,94.13
2022-10-06T13:38:03.874Z,93.65
2022-10-06T13:39:04.164Z,92.88
2022-10-06T13:40:21.927Z,93
2022-10-06T13:41:06.639Z,90.57
2022-10-06T13:42:09.802Z,90.12
2022-10-06T13:43:14.802Z,90.63
2022-10-06T13:44:23.763Z,91.43
2022-10-06T13:45:16.190Z,91.7
2022-10-06T13:46:18.919Z,91.66
2022-10-06T13:47:21.265Z,91.46
2022-10-06T13:48:20.713Z,91.19
2022-10-06T13:49:22.786Z,90.8
2022-10-06T13:50:20.317Z,90.84
2022-10-06T13:51:21.662Z,91.29
2022-10-06T13:52:25.121Z,90.37
2022-10-06T13:53:26.911Z,88.74
2022-10-06T13:55:26.226Z,88.23
2022-10-06T13:58:31.753Z,88.62
2022-10-06T13:59:33.261Z,88.44
2022-10-06T14:00:32.364Z,88.18
2022-10-06T14:01:31.664Z,88.85
2022-10-06T14:02:31.813Z,89.02
2022-10-06T14:04:34.742Z,84.59
2022-10-06T14:05:37.674Z,83.66
2022-10-06T14:06:33.896Z,83.75
2022-10-06T14:07:33.921Z,86.19
2022-10-06T14:08:34.367Z,89.21
2022-10-06T14:09:34.191Z,92.03
2022-10-06T14:10:43.693Z,95.5
2022-10-06T14:11:35.109Z,96.34
2022-10-06T14:12:35.310Z,97.5
2022-10-06T14:13:40.971Z,98.9
2022-10-06T14:14:37.652Z,100
2022-10-06T14:15:45.938Z,100
2022-10-06T14:16:47.207Z,99.5
2022-10-06T14:17:43.480Z,98.96
2022-10-06T14:18:52.455Z,99.04
2022-10-06T14:19:43.874Z,99.57
2022-10-06T14:20:45.026Z,99.91
2022-10-06T14:21:43.876Z,98.82
2022-10-06T14:22:43.797Z,98.25
2022-10-06T14:23:51.162Z,98.3
2022-10-06T14:24:51.097Z,97.61
2022-10-06T14:25:48.824Z,97.13
2022-10-06T14:26:48.651Z,96.33
2022-10-06T14:27:47.450Z,96.16
2022-10-06T14:28:49.287Z,96.82
2022-10-06T14:29:47.426Z,97.36
2022-10-06T14:30:53.814Z,95.96
2022-10-06T14:31:50.084Z,95.58
2022-10-06T14:32:50.093Z,95.56
2022-10-06T14:33:50.897Z,94.73
2022-10-06T14:34:50.546Z,93.77
2022-10-06T14:35:50.308Z,92.19
2022-10-06T14:36:51.163Z,92.53
2022-10-06T14:37:50.163Z,93.6
2022-10-06T14:38:51.059Z,92.71
2022-10-06T14:39:50.992Z,93.29
2022-10-06T14:40:50.208Z,92.43
2022-10-06T14:41:50.228Z,92.37
2022-10-06T14:42:50.257Z,92.72
2022-10-06T14:43:54.073Z,91.84
2022-10-06T14:44:50.270Z,91.11
2022-10-06T14:45:50.461Z,90.68
2022-10-06T14:46:50.386Z,89.74
2022-10-06T14:47:50.319Z,90.16
2022-10-06T14:48:50.915Z,90.1
2022-10-06T14:49:50.511Z,89.44
2022-10-06T14:50:50.537Z,89.35
2022-10-06T14:51:50.370Z,88.82
2022-10-06T14:52:50.568Z,89.48
2022-10-06T14:53:51.420Z,89.49
2022-10-06T14:54:50.411Z,88.97
2022-10-06T14:55:50.411Z,88.45
2022-10-06T14:56:50.653Z,88.32
2022-10-06T14:57:50.407Z,88.65
2022-10-06T14:58:50.803Z,88.17
2022-10-06T14:59:50.446Z,87.99
2022-10-06T15:00:50.489Z,88.17
2022-10-06T15:01:50.485Z,89
2022-10-06T15:02:50.602Z,89.49
2022-10-06T15:03:51.553Z,89.63
2022-10-06T15:04:50.510Z,89.21
2022-10-06T15:05:50.506Z,89.94
2022-10-06T15:06:50.574Z,90.76
2022-10-06T15:07:50.939Z,90.34
2022-10-06T15:08:54.387Z,87.46
2022-10-06T15:09:50.581Z,86.62
2022-10-06T15:10:51.603Z,86.15
2022-10-06T15:11:50.890Z,86.34
2022-10-06T15:12:50.629Z,84.56
2022-10-06T15:13:50.772Z,84.11
2022-10-06T15:14:50.661Z,84.18
2022-10-06T15:15:56.786Z,85.12
2022-10-06T15:16:53.154Z,85.1
2022-10-06T15:17:53.159Z,85.38
2022-10-06T15:18:53.656Z,85.28
2022-10-06T15:19:53.476Z,85.29
2022-10-06T15:20:53.208Z,85.9
2022-10-06T15:21:53.242Z,86.3
2022-10-06T15:22:53.548Z,85.18
2022-10-06T15:23:56.816Z,84.53
2022-10-06T15:24:53.234Z,84.94
2022-10-06T15:25:53.301Z,85.19
2022-10-06T15:26:53.260Z,84.91
2022-10-06T15:27:53.275Z,84.98
2022-10-06T15:28:53.612Z,84.9
2022-10-06T15:29:53.557Z,85.64
2022-10-06T15:30:53.449Z,86.77
2022-10-06T15:31:53.352Z,87.22
2022-10-06T15:32:53.321Z,86.78
2022-10-06T15:33:53.605Z,86.71
2022-10-06T15:34:53.365Z,86.75
2022-10-06T15:36:59.008Z,87.24
2022-10-06T15:37:58.598Z,87.13
2022-10-06T15:38:58.434Z,86.51
2022-10-06T15:39:58.564Z,86.76
2022-10-06T15:41:03.984Z,88.08
2022-10-06T15:42:00.682Z,87.72
2022-10-06T15:43:00.660Z,87.09
2022-10-06T15:44:00.932Z,86.35
2022-10-06T15:45:05.129Z,86.33
2022-10-06T15:46:04.123Z,86.16